createdAt,value
2022-10-23T00:01:36.885Z,8.89
2022-10-23T00:04:19.898Z,8.83
2022-10-23T00:06:47.733Z,8.89
2022-10-23T00:09:17.909Z,8.93
2022-10-23T00:11:48.126Z,8.91
2022-10-23T00:14:16.924Z,8.79
2022-10-23T00:16:44.169Z,8.69
2022-10-23T00:19:11.507Z,8.84
2022-10-23T00:21:39.576Z,8.83
2022-10-23T00:26:38.515Z,8.77
2022-10-23T00:29:05.469Z,8.80
2022-10-23T00:31:32.440Z,8.85
2022-10-23T00:33:59.303Z,8.82
2022-10-23T00:36:26.131Z,8.75
2022-10-23T00:38:53.483Z,8.74
2022-10-23T00:41:32.325Z,8.80
2022-10-23T00:44:18.400Z,8.89
2022-10-23T00:46:46.382Z,8.88
2022-10-23T00:49:14.832Z,8.92
2022-10-23T00:52:04.652Z,8.87
2022-10-23T00:54:42.331Z,8.81
2022-10-23T00:57:15.292Z,8.86
2022-10-23T00:59:42.177Z,8.75
2022-10-23T01:02:09.578Z,8.74
2022-10-23T01:04:37.728Z,8.74
2022-10-23T01:07:17.318Z,8.69
2022-10-23T01:10:10.640Z,8.57
2022-10-23T01:13:05.102Z,8.63
2022-10-23T01:15:43.180Z,8.61
2022-10-23T01:18:32.701Z,8.58
2022-10-23T01:21:10.318Z,8.52
2022-10-23T01:24:04.580Z,8.54
2022-10-23T01:26:45.891Z,8.45
2022-10-23T01:29:35.530Z,8.49
2022-10-23T01:32:11.308Z,8.48
2022-10-23T01:35:13.477Z,8.38
2022-10-23T01:37:46.077Z,8.37
2022-10-23T01:40:23.564Z,8.42
2022-10-23T01:42:55.560Z,8.32
2022-10-23T01:45:31.926Z,8.37
2022-10-23T01:48:01.467Z,8.38
2022-10-23T01:50:30.595Z,8.28
2022-10-23T01:52:57.864Z,8.30
2022-10-23T01:55:25.962Z,8.33
2022-10-23T01:57:54.053Z,8.34
2022-10-23T02:00:21.257Z,8.35
2022-10-23T02:02:50.284Z,8.30
2022-10-23T02:05:29.321Z,8.32
2022-10-23T02:07:57.578Z,8.36
2022-10-23T02:10:49.832Z,8.32
2022-10-23T02:13:40.177Z,8.29
2022-10-23T02:16:30.444Z,8.30
2022-10-23T02:19:11.603Z,8.33
2022-10-23T02:21:54.100Z,8.25
2022-10-23T02:25:00.191Z,8.30
2022-10-23T02:27:33.640Z,8.31
2022-10-23T02:30:10.083Z,8.27
2022-10-23T02:32:45.002Z,8.23
2022-10-23T02:35:13.187Z,8.17
2022-10-23T02:37:40.477Z,8.25
2022-10-23T02:40:09.570Z,8.20
2022-10-23T02:43:14.895Z,8.20
2022-10-23T02:46:25.382Z,8.23
2022-10-23T02:49:16.379Z,8.22
2022-10-23T02:52:17.062Z,8.24
2022-10-23T02:55:15.494Z,8.24
2022-10-23T02:57:51.135Z,8.30
2022-10-23T03:00:21.581Z,8.32
2022-10-23T03:03:02.806Z,8.34
2022-10-23T03:05:36.886Z,8.33
2022-10-23T03:08:06.034Z,8.30
2022-10-23T03:10:32.840Z,8.30
2022-10-23T03:12:59.697Z,8.32
2022-10-23T03:15:26.475Z,8.32
2022-10-23T03:17:53.303Z,8.29
2022-10-23T03:20:20.163Z,8.25
2022-10-23T03:22:47.026Z,8.24
2022-10-23T03:25:14.003Z,8.24
2022-10-23T03:27:40.814Z,8.19
2022-10-23T03:30:08.803Z,8.17
2022-10-23T03:32:35.723Z,8.15
2022-10-23T03:35:02.519Z,8.01
2022-10-23T03:37:29.310Z,8.04
2022-10-23T03:39:56.134Z,7.96
2022-10-23T03:42:22.993Z,8.01
2022-10-23T03:44:50.326Z,7.99
2022-10-23T03:47:17.121Z,7.99
2022-10-23T03:49:43.983Z,7.94
2022-10-23T03:52:10.990Z,7.89
2022-10-23T03:54:37.817Z,7.92
2022-10-23T03:57:04.639Z,7.90
2022-10-23T03:59:31.564Z,7.94
2022-10-23T04:01:58.635Z,7.73
2022-10-23T04:04:25.693Z,7.74
2022-10-23T04:06:52.753Z,7.72
2022-10-23T04:09:19.565Z,7.76
2022-10-23T04:11:46.400Z,7.71
2022-10-23T04:14:14.253Z,7.70
2022-10-23T04:16:41.231Z,7.67
2022-10-23T04:19:08.093Z,7.68
2022-10-23T04:21:34.949Z,7.63
2022-10-23T04:24:01.935Z,7.65
2022-10-23T04:26:28.793Z,7.63
2022-10-23T04:28:55.574Z,7.50
2022-10-23T04:31:22.409Z,7.48
2022-10-23T04:33:49.261Z,7.46
2022-10-23T04:36:16.108Z,7.44
2022-10-23T04:38:42.994Z,7.35
2022-10-23T04:41:09.902Z,7.39
2022-10-23T04:43:37.017Z,7.30
2022-10-23T04:46:04.289Z,7.25
2022-10-23T04:48:31.262Z,7.34
2022-10-23T04:51:05.404Z,7.34
2022-10-23T04:53:33.286Z,7.32
2022-10-23T04:56:00.727Z,7.36
2022-10-23T04:58:29.443Z,7.31
2022-10-23T05:00:57.593Z,7.31
2022-10-23T05:03:26.261Z,7.19
2022-10-23T05:05:55.549Z,7.35
2022-10-23T05:08:23.749Z,7.36
2022-10-23T05:10:50.749Z,7.19
2022-10-23T05:13:19.982Z,7.31
2022-10-23T05:15:51.843Z,7.28
2022-10-23T05:18:46.860Z,7.20
2022-10-23T05:21:21.503Z,7.19
2022-10-23T05:23:48.379Z,7.31
2022-10-23T05:26:15.206Z,7.37
2022-10-23T05:28:42.064Z,7.28
2022-10-23T05:31:09.775Z,7.16
2022-10-23T05:33:37.188Z,7.25
2022-10-23T05:36:04.270Z,7.22
2022-10-23T05:38:34.158Z,7.20
2022-10-23T05:41:00.945Z,7.29
2022-10-23T05:43:31.219Z,7.32
2022-10-23T05:45:59.618Z,7.19
2022-10-23T05:48:41.369Z,7.22
2022-10-23T05:51:11.135Z,7.21
2022-10-23T05:53:40.364Z,7.17
2022-10-23T05:56:10.078Z,7.10
2022-10-23T05:58:37.089Z,7.19
2022-10-23T06:01:13.769Z,7.27
2022-10-23T06:03:41.338Z,7.13
2022-10-23T06:06:08.574Z,7.07
2022-10-23T06:08:35.945Z,7.20
2022-10-23T06:11:14.869Z,7.15
2022-10-23T06:13:46.564Z,7.07
2022-10-23T06:16:18.045Z,7.03
2022-10-23T06:18:48.682Z,7.14
2022-10-23T06:21:16.150Z,7.15
2022-10-23T06:23:45.661Z,7.18
2022-10-23T06:26:15.867Z,7.19
2022-10-23T06:28:43.176Z,7.20
2022-10-23T06:31:13.932Z,7.21
2022-10-23T06:33:41.719Z,7.25
2022-10-23T06:36:11.638Z,7.28
2022-10-23T06:38:40.722Z,7.25
2022-10-23T06:41:14.122Z,7.31
2022-10-23T06:43:41.131Z,7.24
2022-10-23T06:46:08.627Z,7.37
2022-10-23T06:48:35.511Z,7.44
2022-10-23T06:51:08.289Z,7.53
2022-10-23T06:53:36.092Z,7.48
2022-10-23T06:56:05.833Z,7.42
2022-10-23T06:58:34.608Z,7.42
2022-10-23T07:01:04.548Z,7.51
2022-10-23T07:03:32.070Z,7.59
2022-10-23T07:06:07.462Z,7.57
2022-10-23T07:08:34.483Z,7.55
2022-10-23T07:11:07.141Z,7.63
2022-10-23T07:13:35.428Z,7.64
2022-10-23T07:16:18.373Z,7.64
2022-10-23T07:18:46.562Z,7.71
2022-10-23T07:21:13.372Z,7.77
2022-10-23T07:23:40.368Z,7.89
2022-10-23T07:26:15.329Z,7.93
2022-10-23T07:28:46.940Z,7.96
2022-10-23T07:31:13.957Z,8.02
2022-10-23T07:33:40.766Z,8.13
2022-10-23T07:36:09.518Z,8.25
2022-10-23T07:38:37.510Z,8.33
2022-10-23T07:41:07.788Z,8.43
2022-10-23T07:43:37.919Z,8.53
2022-10-23T07:46:04.945Z,8.62
2022-10-23T07:48:31.822Z,8.69
2022-10-23T07:51:08.167Z,8.87
2022-10-23T07:53:36.011Z,8.99
2022-10-23T07:56:11.318Z,9.15
2022-10-23T07:58:38.099Z,9.30
2022-10-23T08:01:06.565Z,9.46
2022-10-23T08:03:34.280Z,9.56
2022-10-23T08:06:01.168Z,9.68
2022-10-23T08:08:28.026Z,9.86
2022-10-23T08:10:55.912Z,10.11
2022-10-23T08:13:23.527Z,10.29
2022-10-23T08:15:52.865Z,10.44
2022-10-23T08:18:20.060Z,10.64
2022-10-23T08:20:48.693Z,10.78
2022-10-23T08:23:19.903Z,10.99
2022-10-23T08:25:47.430Z,11.12
2022-10-23T08:28:15.864Z,11.25
2022-10-23T08:30:42.850Z,11.37
2022-10-23T08:33:09.780Z,11.49
2022-10-23T08:35:39.839Z,11.68
2022-10-23T08:38:07.307Z,11.80
2022-10-23T08:40:35.818Z,11.96
2022-10-23T08:43:11.626Z,12.14
2022-10-23T08:46:00.535Z,12.49
2022-10-23T08:48:50.004Z,12.74
2022-10-23T08:51:27.634Z,13.01
2022-10-23T08:54:08.686Z,13.24
2022-10-23T08:56:39.863Z,13.43
2022-10-23T08:59:59.334Z,13.67
2022-10-23T09:02:44.614Z,13.80
2022-10-23T09:05:27.671Z,13.95
2022-10-23T09:08:20.408Z,14.24
2022-10-23T09:11:04.517Z,14.49
2022-10-23T09:13:36.827Z,14.67
2022-10-23T09:16:59.685Z,14.92
2022-10-23T09:19:29.526Z,15.13
2022-10-23T09:21:57.232Z,15.25
2022-10-23T09:24:28.597Z,15.46
2022-10-23T09:26:55.534Z,15.65
2022-10-23T09:29:25.604Z,15.94
2022-10-23T09:31:58.354Z,16.09
2022-10-23T09:34:28.892Z,16.08
2022-10-23T09:37:04.870Z,16.18
2022-10-23T09:39:35.041Z,16.34
2022-10-23T09:42:22.388Z,16.58
2022-10-23T09:44:52.308Z,16.74
2022-10-23T09:47:24.153Z,16.91
2022-10-23T09:49:56.538Z,16.99
2022-10-23T09:52:30.451Z,17.00
2022-10-23T09:55:00.891Z,17.15
2022-10-23T09:57:38.403Z,17.30
2022-10-23T10:00:14.150Z,17.40
2022-10-23T10:03:03.785Z,17.52
2022-10-23T10:05:36.065Z,17.59
2022-10-23T10:08:59.361Z,17.55
2022-10-23T10:12:20.585Z,17.52
2022-10-23T10:14:49.982Z,17.58
2022-10-23T10:17:51.643Z,17.70
2022-10-23T10:20:46.398Z,17.83
2022-10-23T10:23:13.099Z,17.92
2022-10-23T10:26:07.879Z,17.89
2022-10-23T10:29:04.167Z,17.98
2022-10-23T10:31:54.589Z,18.04
2022-10-23T10:34:49.511Z,18.12
2022-10-23T10:37:50.557Z,18.07
2022-10-23T10:40:42.734Z,18.23
2022-10-23T10:43:36.881Z,18.19
2022-10-23T10:46:43.089Z,18.30
2022-10-23T10:49:29.753Z,18.53
2022-10-23T10:52:10.108Z,18.62
2022-10-23T10:55:04.424Z,18.83
2022-10-23T10:57:50.767Z,18.90
2022-10-23T11:00:23.626Z,18.97
2022-10-23T11:02:59.189Z,19.09
2022-10-23T11:05:33.671Z,19.15
2022-10-23T11:08:49.812Z,19.27
2022-10-23T11:11:40.980Z,19.24
2022-10-23T11:14:15.277Z,19.36
2022-10-23T11:16:48.559Z,19.47
2022-10-23T11:19:24.775Z,19.54
2022-10-23T11:22:06.164Z,19.66
2022-10-23T11:25:00.396Z,19.79
2022-10-23T11:27:48.467Z,19.83
2022-10-23T11:30:30.537Z,19.91
2022-10-23T11:33:28.319Z,20.06
2022-10-23T11:36:56.841Z,20.23
2022-10-23T11:39:35.078Z,20.32
2022-10-23T11:42:04.876Z,20.39
2022-10-23T11:44:44.833Z,20.43
2022-10-23T11:47:39.708Z,20.63
2022-10-23T11:50:07.234Z,20.78
2022-10-23T11:52:45.577Z,21.08
2022-10-23T11:55:18.840Z,21.31
2022-10-23T11:58:05.367Z,21.45
2022-10-23T12:00:35.809Z,21.66
2022-10-23T12:03:02.959Z,21.74
2022-10-23T12:05:42.262Z,21.85
2022-10-23T12:08:25.306Z,21.93
2022-10-23T12:10:53.088Z,22.01
2022-10-23T12:13:38.271Z,22.20
2022-10-23T12:16:08.211Z,22.24
2022-10-23T12:18:50.460Z,22.30
2022-10-23T12:21:28.126Z,22.28
2022-10-23T12:24:16.306Z,22.38
2022-10-23T12:27:33.830Z,22.17
2022-10-23T12:30:23.897Z,22.18
2022-10-23T12:33:08.486Z,22.26
2022-10-23T12:36:19.291Z,22.31
2022-10-23T12:38:48.100Z,22.16
2022-10-23T12:41:27.815Z,22.09
2022-10-23T12:44:00.420Z,21.96
2022-10-23T12:46:37.245Z,21.92
2022-10-23T12:49:14.713Z,21.97
2022-10-23T12:51:41.622Z,21.95
2022-10-23T12:54:20.477Z,21.92
2022-10-23T12:56:48.276Z,21.82
2022-10-23T12:59:26.573Z,21.80
2022-10-23T13:01:55.309Z,21.78
2022-10-23T13:04:30.612Z,21.78
2022-10-23T13:07:01.723Z,21.92
2022-10-23T13:09:42.607Z,21.89
2022-10-23T13:12:25.175Z,21.93
2022-10-23T13:15:19.850Z,21.95
2022-10-23T13:18:03.256Z,21.91
2022-10-23T13:20:35.403Z,21.85
2022-10-23T13:23:09.895Z,21.72
2022-10-23T13:25:39.339Z,21.73
2022-10-23T13:28:08.783Z,21.53
2022-10-23T13:30:43.191Z,21.50
2022-10-23T13:33:31.061Z,21.22
2022-10-23T13:36:00.931Z,21.15
2022-10-23T13:38:36.935Z,21.04
2022-10-23T13:41:09.201Z,21.03
2022-10-23T13:43:35.985Z,20.80
2022-10-23T13:46:02.800Z,20.72
2022-10-23T13:48:30.285Z,20.56
2022-10-23T13:51:14.604Z,20.40
2022-10-23T13:53:42.252Z,20.25
2022-10-23T13:56:13.386Z,20.06
2022-10-23T13:58:40.440Z,20.01
2022-10-23T14:01:23.318Z,19.84
2022-10-23T14:03:52.096Z,19.84
2022-10-23T14:06:19.403Z,19.79
2022-10-23T14:08:47.076Z,19.78
2022-10-23T14:11:17.594Z,19.55
2022-10-23T14:13:45.339Z,19.62
2022-10-23T14:16:14.696Z,19.61
2022-10-23T14:18:41.912Z,19.65
2022-10-23T14:21:12.436Z,19.63
2022-10-23T14:23:39.467Z,19.65
2022-10-23T14:26:12.707Z,19.71
2022-10-23T14:28:39.718Z,19.59
2022-10-23T14:31:09.624Z,19.58
2022-10-23T14:33:36.460Z,19.60
2022-10-23T14:36:03.738Z,19.51
2022-10-23T14:38:31.015Z,19.43
2022-10-23T14:40:57.892Z,19.26
2022-10-23T14:43:24.801Z,19.30
2022-10-23T14:45:52.085Z,19.24
2022-10-23T14:48:19.256Z,19.27
2022-10-23T14:50:49.159Z,19.21
2022-10-23T14:53:16.709Z,19.24
2022-10-23T14:55:43.446Z,19.30
2022-10-23T14:58:10.267Z,19.30
2022-10-23T15:00:37.149Z,19.34
2022-10-23T15:03:04.030Z,19.40
2022-10-23T15:05:30.864Z,19.36
2022-10-23T15:07:59.106Z,19.30
2022-10-23T15:10:25.952Z,19.29
2022-10-23T15:12:52.766Z,19.36
2022-10-23T15:15:19.765Z,19.37
2022-10-23T15:17:46.570Z,19.37
2022-10-23T15:20:13.443Z,19.39
2022-10-23T15:22:40.317Z,19.37
2022-10-23T15:25:08.042Z,19.35
2022-10-23T15:27:35.330Z,19.31
2022-10-23T15:30:02.388Z,19.23
2022-10-23T15:32:29.221Z,19.18
2022-10-23T15:34:58.377Z,19.13
2022-10-23T15:37:25.199Z,19.03
2022-10-23T15:39:52.538Z,18.95
2022-10-23T15:42:19.496Z,18.90
2022-10-23T15:44:46.305Z,18.86
2022-10-23T15:47:13.224Z,18.82
2022-10-23T15:49:40.206Z,18.77
2022-10-23T15:54:36.140Z,18.56
2022-10-23T15:57:03.904Z,18.52
2022-10-23T15:59:32.636Z,18.38
2022-10-23T16:01:59.925Z,18.35
2022-10-23T16:04:28.768Z,18.28
2022-10-23T16:06:55.636Z,18.23
2022-10-23T16:09:22.483Z,18.15
2022-10-23T16:11:49.343Z,18.06
2022-10-23T16:14:17.679Z,18.03
2022-10-23T16:16:44.478Z,17.99
2022-10-23T16:19:11.882Z,18.00
2022-10-23T16:21:39.181Z,17.86
2022-10-23T16:24:08.717Z,17.81
2022-10-23T16:26:36.108Z,17.69
2022-10-23T16:29:06.708Z,17.79
2022-10-23T16:31:34.412Z,17.76
2022-10-23T16:34:02.792Z,17.66
2022-10-23T16:36:29.816Z,17.66
2022-10-23T16:38:57.123Z,17.62
2022-10-23T16:41:24.008Z,17.57
2022-10-23T16:43:50.793Z,17.57
2022-10-23T16:46:21.145Z,17.54
2022-10-23T16:48:49.278Z,17.48
2022-10-23T16:51:26.037Z,17.47
2022-10-23T16:53:53.689Z,17.42
2022-10-23T16:56:25.081Z,17.34
2022-10-23T16:58:51.996Z,17.30
2022-10-23T17:01:23.424Z,17.30
2022-10-23T17:03:52.628Z,17.23
2022-10-23T17:06:26.450Z,17.06
2022-10-23T17:08:54.773Z,16.86
2022-10-23T17:11:25.671Z,16.92
2022-10-23T17:13:59.946Z,16.84
2022-10-23T17:16:30.083Z,16.90
2022-10-23T17:18:58.101Z,16.96
2022-10-23T17:21:25.293Z,16.84
2022-10-23T17:23:53.116Z,16.93
2022-10-23T17:26:22.000Z,16.83
2022-10-23T17:28:49.110Z,16.83
2022-10-23T17:31:21.048Z,16.78
2022-10-23T17:33:54.712Z,16.77
2022-10-23T17:36:22.379Z,16.75
2022-10-23T17:38:49.754Z,16.69
2022-10-23T17:41:19.112Z,16.66
2022-10-23T17:43:46.628Z,16.50
2022-10-23T17:46:14.477Z,16.53
2022-10-23T17:48:43.746Z,16.57
2022-10-23T17:51:15.741Z,16.54
2022-10-23T17:53:46.513Z,16.50
2022-10-23T17:56:19.250Z,16.52
2022-10-23T17:58:46.935Z,16.43
2022-10-23T18:01:17.967Z,16.46
2022-10-23T18:03:46.009Z,16.48
2022-10-23T18:06:19.515Z,16.55
2022-10-23T18:08:47.492Z,16.55
2022-10-23T18:11:24.528Z,16.60
2022-10-23T18:13:52.632Z,16.59
2022-10-23T18:16:20.513Z,16.55
2022-10-23T18:18:51.803Z,16.42
2022-10-23T18:21:21.997Z,16.40
2022-10-23T18:23:49.220Z,16.46
2022-10-23T18:26:23.407Z,16.44
2022-10-23T18:28:53.868Z,16.40
2022-10-23T18:31:21.288Z,16.38
2022-10-23T18:33:48.161Z,16.39
2022-10-23T18:36:25.706Z,16.30
2022-10-23T18:38:52.893Z,16.22
2022-10-23T18:41:20.406Z,16.17
2022-10-23T18:43:47.164Z,16.16
2022-10-23T18:46:15.509Z,16.21
2022-10-23T18:48:43.579Z,16.21
2022-10-23T18:51:28.284Z,16.08
2022-10-23T18:53:56.356Z,16.05
2022-10-23T18:56:26.772Z,16.03
2022-10-23T18:59:02.583Z,16.01
2022-10-23T19:01:31.157Z,16.05
2022-10-23T19:04:00.687Z,16.00
2022-10-23T19:06:29.423Z,16.04
2022-10-23T19:08:56.785Z,15.96
2022-10-23T19:11:27.000Z,15.90
2022-10-23T19:13:53.888Z,15.92
2022-10-23T19:16:37.783Z,15.90
2022-10-23T19:19:16.881Z,15.87
2022-10-23T19:21:44.552Z,15.89
2022-10-23T19:24:23.459Z,15.88
2022-10-23T19:26:51.084Z,15.87
2022-10-23T19:29:22.393Z,15.82
2022-10-23T19:31:49.621Z,15.76
2022-10-23T19:34:20.161Z,15.78
2022-10-23T19:36:48.711Z,15.74
2022-10-23T19:39:16.873Z,15.79
2022-10-23T19:41:44.002Z,15.73
2022-10-23T19:44:11.241Z,15.77
2022-10-23T19:46:38.366Z,15.77
2022-10-23T19:49:06.350Z,15.78
2022-10-23T19:51:33.347Z,15.76
2022-10-23T19:54:00.517Z,15.68
2022-10-23T19:56:27.920Z,15.64
2022-10-23T19:58:55.028Z,15.61
2022-10-23T20:01:25.201Z,15.48
2022-10-23T20:03:52.342Z,15.74
2022-10-23T20:06:24.497Z,15.75
2022-10-23T20:08:52.029Z,16.02
2022-10-23T20:11:29.526Z,16.28
2022-10-23T20:13:57.263Z,16.55
2022-10-23T20:16:28.217Z,16.73
2022-10-23T20:18:55.153Z,16.95
2022-10-23T20:21:22.445Z,17.01
2022-10-23T20:23:49.687Z,17.05
2022-10-23T20:26:21.394Z,17.17
2022-10-23T20:28:52.696Z,17.30
2022-10-23T20:31:22.485Z,17.25
2022-10-23T20:33:50.055Z,17.34
2022-10-23T20:36:29.422Z,17.34
2022-10-23T20:38:58.133Z,17.29
2022-10-23T20:41:28.562Z,17.32
2022-10-23T20:43:56.655Z,17.29
2022-10-23T20:46:24.167Z,17.15
2022-10-23T20:48:52.792Z,17.14
2022-10-23T20:51:23.009Z,17.15
2022-10-23T20:53:51.547Z,16.98
2022-10-23T20:56:24.287Z,16.94
2022-10-23T20:58:51.333Z,16.92
2022-10-23T21:01:18.997Z,16.81
2022-10-23T21:03:56.227Z,16.70
2022-10-23T21:06:24.403Z,16.58
2022-10-23T21:08:59.228Z,16.40
2022-10-23T21:11:27.185Z,16.15
2022-10-23T21:13:56.025Z,16.03
2022-10-23T21:16:29.807Z,16.00
2022-10-23T21:18:57.847Z,16.03
2022-10-23T21:21:26.366Z,15.99
2022-10-23T21:23:56.128Z,15.99
2022-10-23T21:26:24.503Z,15.94
2022-10-23T21:28:56.090Z,15.86
2022-10-23T21:31:33.953Z,15.75
2022-10-23T21:34:00.924Z,15.67
2022-10-23T21:36:29.998Z,15.61
2022-10-23T21:38:59.470Z,15.51
2022-10-23T21:41:31.043Z,15.50
2022-10-23T21:44:01.758Z,15.44
2022-10-23T21:46:30.637Z,15.26
2022-10-23T21:49:00.009Z,15.23
2022-10-23T21:51:37.263Z,15.19
2022-10-23T21:54:06.832Z,15.03
2022-10-23T21:56:33.580Z,15.09
2022-10-23T21:59:02.120Z,15.06
2022-10-23T22:01:29.608Z,15.03
2022-10-23T22:03:56.584Z,14.91
2022-10-23T22:06:28.116Z,14.87
2022-10-23T22:08:58.165Z,14.96
2022-10-23T22:11:26.366Z,15.01
2022-10-23T22:13:53.949Z,15.08
2022-10-23T22:16:21.089Z,14.97
2022-10-23T22:18:48.199Z,14.93
2022-10-23T22:21:22.929Z,14.96
2022-10-23T22:23:50.764Z,14.98
2022-10-23T22:26:32.968Z,15.01
2022-10-23T22:29:07.996Z,15.03
2022-10-23T22:31:36.619Z,15.02
2022-10-23T22:34:18.716Z,15.03
2022-10-23T22:36:54.859Z,14.96
2022-10-23T22:39:22.231Z,14.90
2022-10-23T22:41:49.495Z,14.89
2022-10-23T22:44:16.762Z,14.97
2022-10-23T22:46:44.085Z,14.83
2022-10-23T22:49:11.242Z,14.86
2022-10-23T22:51:39.819Z,14.82
2022-10-23T22:54:07.288Z,14.80
2022-10-23T22:56:35.274Z,14.82
2022-10-23T22:59:02.789Z,14.76
2022-10-23T23:01:41.064Z,14.73
2022-10-23T23:04:19.653Z,14.70
2022-10-23T23:06:54.673Z,14.59
2022-10-23T23:09:21.479Z,14.55
2022-10-23T23:11:52.593Z,14.56
2022-10-23T23:14:23.690Z,14.53
2022-10-23T23:16:53.188Z,14.53
2022-10-23T23:19:20.458Z,14.43
2022-10-23T23:21:47.308Z,14.38
2022-10-23T23:24:14.708Z,14.48
2022-10-23T23:26:41.599Z,14.42
2022-10-23T23:29:08.342Z,14.47
2022-10-23T23:31:35.166Z,14.42
2022-10-23T23:34:01.996Z,14.36
2022-10-23T23:36:29.086Z,14.32
2022-10-23T23:38:57.821Z,14.33
2022-10-23T23:41:26.835Z,14.26
2022-10-23T23:43:56.950Z,14.30
2022-10-23T23:46:24.625Z,14.29
2022-10-23T23:48:51.457Z,14.26
2022-10-23T23:51:22.418Z,14.26
2022-10-23T23:53:50.529Z,14.34
2022-10-23T23:56:18.706Z,14.29
2022-10-23T23:58:45.613Z,14.18
